createdAt,value
2023-09-24T00:00:59.281Z,12.40
2023-09-24T00:03:27.190Z,12.38
2023-09-24T00:05:54.490Z,12.37
2023-09-24T00:08:21.542Z,12.37
2023-09-24T00:10:51.804Z,12.34
2023-09-24T00:13:18.537Z,12.32
2023-09-24T00:15:45.264Z,12.30
2023-09-24T00:18:11.916Z,12.31
2023-09-24T00:20:38.886Z,12.28
2023-09-24T00:23:05.407Z,12.27
2023-09-24T00:25:31.986Z,12.24
2023-09-24T00:27:58.597Z,12.23
2023-09-24T00:30:25.251Z,12.21
2023-09-24T00:32:54.939Z,12.20
2023-09-24T00:35:23.683Z,12.19
2023-09-24T00:37:50.432Z,12.16
2023-09-24T00:40:16.970Z,12.14
2023-09-24T00:42:43.572Z,12.13
2023-09-24T00:45:12.841Z,12.12
2023-09-24T00:47:45.624Z,12.12
2023-09-24T00:50:13.297Z,12.09
2023-09-24T00:52:43.525Z,12.07
2023-09-24T00:55:14.317Z,12.04
2023-09-24T00:57:42.166Z,12.05
2023-09-24T01:00:12.888Z,12.04
2023-09-24T01:02:40.734Z,11.98
2023-09-24T01:05:11.524Z,11.96
2023-09-24T01:07:40.755Z,11.96
2023-09-24T01:10:12.271Z,11.95
2023-09-24T01:12:40.944Z,11.92
2023-09-24T01:15:14.267Z,11.91
2023-09-24T01:17:40.951Z,11.91
2023-09-24T01:20:13.294Z,11.90
2023-09-24T01:22:41.586Z,11.88
2023-09-24T01:25:08.597Z,11.87
2023-09-24T01:27:36.646Z,11.85
2023-09-24T01:30:07.288Z,11.82
2023-09-24T01:32:34.140Z,11.81
2023-09-24T01:35:07.355Z,11.79
2023-09-24T01:37:35.172Z,11.75
2023-09-24T01:40:08.351Z,11.74
2023-09-24T01:42:35.595Z,11.72
2023-09-24T01:45:02.179Z,11.71
2023-09-24T01:47:29.772Z,11.68
2023-09-24T01:49:58.145Z,11.66
2023-09-24T01:52:24.679Z,11.64
2023-09-24T01:54:51.889Z,11.62
2023-09-24T01:57:19.999Z,11.60
2023-09-24T01:59:46.578Z,11.59
2023-09-24T02:02:14.409Z,11.59
2023-09-24T02:04:40.963Z,11.61
2023-09-24T02:07:09.344Z,11.60
2023-09-24T02:09:36.762Z,11.60
2023-09-24T02:12:03.409Z,11.57
2023-09-24T02:14:30.526Z,11.55
2023-09-24T02:16:57.109Z,11.53
2023-09-24T02:19:26.063Z,11.49
2023-09-24T02:21:52.591Z,11.47
2023-09-24T02:24:19.783Z,11.46
2023-09-24T02:26:46.337Z,11.47
2023-09-24T02:29:12.909Z,11.47
2023-09-24T02:31:39.609Z,11.46
2023-09-24T02:34:07.278Z,11.43
2023-09-24T02:36:33.773Z,11.42
2023-09-24T02:39:00.444Z,11.40
2023-09-24T02:41:26.979Z,11.37
2023-09-24T02:43:55.928Z,11.37
2023-09-24T02:46:22.491Z,11.39
2023-09-24T02:48:49.088Z,11.37
2023-09-24T02:51:15.663Z,11.36
2023-09-24T02:53:43.349Z,11.36
2023-09-24T02:56:09.980Z,11.33
2023-09-24T02:58:36.781Z,11.32
2023-09-24T03:01:05.621Z,11.32
2023-09-24T03:03:32.267Z,11.32
2023-09-24T03:05:59.033Z,11.26
2023-09-24T03:08:27.769Z,11.24
2023-09-24T03:10:55.191Z,11.23
2023-09-24T03:13:22.141Z,11.24
2023-09-24T03:15:49.380Z,11.25
2023-09-24T03:18:16.008Z,11.22
2023-09-24T03:20:44.999Z,11.22
2023-09-24T03:23:11.799Z,11.18
2023-09-24T03:25:38.834Z,11.19
2023-09-24T03:28:05.698Z,11.17
2023-09-24T03:30:32.399Z,11.15
2023-09-24T03:33:00.433Z,11.14
2023-09-24T03:35:28.561Z,11.11
2023-09-24T03:37:56.289Z,11.11
2023-09-24T03:40:25.916Z,11.09
2023-09-24T03:42:52.859Z,11.08
2023-09-24T03:45:21.407Z,11.05
2023-09-24T03:47:48.464Z,11.05
2023-09-24T03:50:18.293Z,11.03
2023-09-24T03:52:46.573Z,10.99
2023-09-24T03:55:13.653Z,10.98
2023-09-24T03:57:40.643Z,11.00
2023-09-24T04:00:19.394Z,10.99
2023-09-24T04:02:53.231Z,10.97
2023-09-24T04:05:25.151Z,10.99
2023-09-24T04:07:54.665Z,10.99
2023-09-24T04:10:24.190Z,10.98
2023-09-24T04:12:52.147Z,10.95
2023-09-24T04:15:24.366Z,10.95
2023-09-24T04:17:51.606Z,10.95
2023-09-24T04:20:20.873Z,10.93
2023-09-24T04:22:48.379Z,10.90
2023-09-24T04:25:16.683Z,10.89
2023-09-24T04:27:43.777Z,10.88
2023-09-24T04:30:12.840Z,10.88
2023-09-24T04:32:39.925Z,10.86
2023-09-24T04:35:07.107Z,10.84
2023-09-24T04:37:33.737Z,10.80
2023-09-24T04:40:00.382Z,10.78
2023-09-24T04:42:26.952Z,10.75
2023-09-24T04:44:53.651Z,10.74
2023-09-24T04:47:20.260Z,10.76
2023-09-24T04:49:48.068Z,10.75
2023-09-24T04:52:14.610Z,10.73
2023-09-24T04:54:41.177Z,10.71
2023-09-24T04:57:09.122Z,10.71
2023-09-24T04:59:35.876Z,10.71
2023-09-24T05:02:02.428Z,10.67
2023-09-24T05:04:29.125Z,10.66
2023-09-24T05:06:55.888Z,10.65
2023-09-24T05:09:26.518Z,10.61
2023-09-24T05:11:55.170Z,10.59
2023-09-24T05:14:22.001Z,10.56
2023-09-24T05:16:52.306Z,10.54
2023-09-24T05:19:19.088Z,10.53
2023-09-24T05:21:46.036Z,10.51
2023-09-24T05:24:12.806Z,10.51
2023-09-24T05:26:39.460Z,10.50
2023-09-24T05:29:06.082Z,10.51
2023-09-24T05:31:32.578Z,10.51
2023-09-24T05:33:59.532Z,10.51
2023-09-24T05:36:26.160Z,10.51
2023-09-24T05:38:52.742Z,10.51
2023-09-24T05:41:19.309Z,10.50
2023-09-24T05:43:46.923Z,10.52
2023-09-24T05:46:13.591Z,10.52
2023-09-24T05:48:40.257Z,10.53
2023-09-24T05:51:08.384Z,10.52
2023-09-24T05:53:35.152Z,10.54
2023-09-24T05:56:03.285Z,10.56
2023-09-24T05:58:29.881Z,10.60
2023-09-24T06:00:57.300Z,10.62
2023-09-24T06:03:24.146Z,10.65
2023-09-24T06:05:50.930Z,10.67
2023-09-24T06:08:17.546Z,10.69
2023-09-24T06:10:46.031Z,10.70
2023-09-24T06:13:19.614Z,10.72
2023-09-24T06:15:46.331Z,10.73
2023-09-24T06:18:13.870Z,10.79
2023-09-24T06:20:42.362Z,10.85
2023-09-24T06:23:10.010Z,10.89
2023-09-24T06:25:36.665Z,10.93
2023-09-24T06:28:05.616Z,10.94
2023-09-24T06:30:32.253Z,10.98
2023-09-24T06:32:59.009Z,11.02
2023-09-24T06:35:25.722Z,11.07
2023-09-24T06:37:52.308Z,11.09
2023-09-24T06:40:19.135Z,11.12
2023-09-24T06:42:47.018Z,11.15
2023-09-24T06:45:13.818Z,11.17
2023-09-24T06:47:40.541Z,11.19
2023-09-24T06:50:07.776Z,11.25
2023-09-24T06:52:34.332Z,11.29
2023-09-24T06:55:01.169Z,11.32
2023-09-24T06:57:27.642Z,11.34
2023-09-24T06:59:55.395Z,11.37
2023-09-24T07:02:22.061Z,11.38
2023-09-24T07:04:50.055Z,11.38
2023-09-24T07:07:16.724Z,11.42
2023-09-24T07:09:43.626Z,11.50
2023-09-24T07:12:11.349Z,11.59
2023-09-24T07:14:37.952Z,11.66
2023-09-24T07:17:04.537Z,11.71
2023-09-24T07:19:31.136Z,11.77
2023-09-24T07:21:58.506Z,11.87
2023-09-24T07:24:25.900Z,11.93
2023-09-24T07:26:52.775Z,12.02
2023-09-24T07:29:19.413Z,12.10
2023-09-24T07:31:46.095Z,12.17
2023-09-24T07:34:12.729Z,12.22
2023-09-24T07:36:52.637Z,12.28
2023-09-24T07:39:24.605Z,12.35
2023-09-24T07:41:51.724Z,12.40
2023-09-24T07:44:19.812Z,12.46
2023-09-24T07:46:46.983Z,12.49
2023-09-24T07:49:13.879Z,12.55
2023-09-24T07:51:40.485Z,12.58
2023-09-24T07:54:08.140Z,12.59
2023-09-24T07:56:35.634Z,12.61
2023-09-24T07:59:03.764Z,12.67
2023-09-24T08:01:30.845Z,12.74
2023-09-24T08:03:57.532Z,12.80
2023-09-24T08:06:24.801Z,12.85
2023-09-24T08:09:00.043Z,12.87
2023-09-24T08:11:33.715Z,12.92
2023-09-24T08:14:00.373Z,12.94
2023-09-24T08:16:27.743Z,12.95
2023-09-24T08:18:54.740Z,12.99
2023-09-24T08:21:21.493Z,13.05
2023-09-24T08:23:48.953Z,13.09
2023-09-24T08:26:15.923Z,13.13
2023-09-24T08:28:43.218Z,13.18
2023-09-24T08:31:12.079Z,13.21
2023-09-24T08:33:38.775Z,13.25
2023-09-24T08:36:10.253Z,13.27
2023-09-24T08:38:36.869Z,13.32
2023-09-24T08:41:11.321Z,13.36
2023-09-24T08:43:40.580Z,13.40
2023-09-24T08:46:09.663Z,13.47
2023-09-24T08:48:38.018Z,13.52
2023-09-24T08:51:05.357Z,13.56
2023-09-24T08:53:33.596Z,13.61
2023-09-24T08:56:01.620Z,13.68
2023-09-24T08:58:29.145Z,13.70
2023-09-24T09:00:55.714Z,13.74
2023-09-24T09:03:22.856Z,13.80
2023-09-24T09:05:50.838Z,13.84
2023-09-24T09:08:17.428Z,13.88
2023-09-24T09:10:44.074Z,13.93
2023-09-24T09:13:15.004Z,13.96
2023-09-24T09:15:43.542Z,14.01
2023-09-24T09:18:25.876Z,14.06
2023-09-24T09:21:00.064Z,14.09
2023-09-24T09:23:34.822Z,14.15
2023-09-24T09:26:02.859Z,14.20
2023-09-24T09:28:33.670Z,14.23
2023-09-24T09:31:15.151Z,14.30
2023-09-24T09:33:44.672Z,14.35
2023-09-24T09:36:31.304Z,14.38
2023-09-24T09:38:59.788Z,14.43
2023-09-24T09:41:27.575Z,14.48
2023-09-24T09:43:54.961Z,14.52
2023-09-24T09:46:24.524Z,14.60
2023-09-24T09:48:56.704Z,14.63
2023-09-24T09:51:25.346Z,14.67
2023-09-24T09:53:54.923Z,14.74
2023-09-24T09:56:24.007Z,14.79
2023-09-24T09:58:52.623Z,14.86
2023-09-24T10:01:22.394Z,14.88
2023-09-24T10:03:52.507Z,14.93
2023-09-24T10:06:20.101Z,14.98
2023-09-24T10:08:49.174Z,15.04
2023-09-24T10:11:32.319Z,15.09
2023-09-24T10:14:00.473Z,15.12
2023-09-24T10:16:27.000Z,15.18
2023-09-24T10:18:57.519Z,15.22
2023-09-24T10:21:31.657Z,15.29
2023-09-24T10:24:00.266Z,15.35
2023-09-24T10:26:46.567Z,15.43
2023-09-24T10:29:13.134Z,15.48
2023-09-24T10:32:08.394Z,15.54
2023-09-24T10:34:56.516Z,15.63
2023-09-24T10:37:31.982Z,15.71
2023-09-24T10:40:06.595Z,15.83
2023-09-24T10:42:35.446Z,15.90
2023-09-24T10:45:08.430Z,15.99
2023-09-24T10:47:43.998Z,16.08
2023-09-24T10:50:15.834Z,16.20
2023-09-24T10:52:49.678Z,16.33
2023-09-24T10:55:17.740Z,16.44
2023-09-24T10:57:47.771Z,16.52
2023-09-24T11:00:17.775Z,16.54
2023-09-24T11:02:45.566Z,16.55
2023-09-24T11:05:13.387Z,16.62
2023-09-24T11:07:39.977Z,16.68
2023-09-24T11:10:07.036Z,16.77
2023-09-24T11:12:33.593Z,16.77
2023-09-24T11:15:15.288Z,16.79
2023-09-24T11:17:45.993Z,16.80
2023-09-24T11:20:13.599Z,16.82
2023-09-24T11:22:40.676Z,16.84
2023-09-24T11:25:11.552Z,16.85
2023-09-24T11:27:57.490Z,16.88
2023-09-24T11:30:28.653Z,16.93
2023-09-24T11:32:55.362Z,16.94
2023-09-24T11:35:26.324Z,16.97
2023-09-24T11:38:00.210Z,16.99
2023-09-24T11:40:35.708Z,16.98
2023-09-24T11:43:09.612Z,16.98
2023-09-24T11:45:43.969Z,16.98
2023-09-24T11:48:14.469Z,16.98
2023-09-24T11:50:44.780Z,16.92
2023-09-24T11:53:11.778Z,16.90
2023-09-24T11:55:39.710Z,16.88
2023-09-24T11:58:07.298Z,16.91
2023-09-24T12:00:36.650Z,16.96
2023-09-24T12:03:05.121Z,16.99
2023-09-24T12:05:34.362Z,17.04
2023-09-24T12:08:02.886Z,17.09
2023-09-24T12:10:29.555Z,17.10
2023-09-24T12:13:02.147Z,17.12
2023-09-24T12:15:31.071Z,17.14
2023-09-24T12:17:58.623Z,17.14
2023-09-24T12:20:25.401Z,17.15
2023-09-24T12:22:51.941Z,17.14
2023-09-24T12:25:18.798Z,17.16
2023-09-24T12:27:45.643Z,17.21
2023-09-24T12:30:13.812Z,17.24
2023-09-24T12:32:41.138Z,17.25
2023-09-24T12:35:09.975Z,17.28
2023-09-24T12:37:37.223Z,17.28
2023-09-24T12:40:08.552Z,17.29
2023-09-24T12:42:36.656Z,17.33
2023-09-24T12:45:04.943Z,17.33
2023-09-24T12:47:34.224Z,17.35
2023-09-24T12:50:04.785Z,17.35
2023-09-24T12:52:36.622Z,17.38
2023-09-24T12:55:05.024Z,17.40
2023-09-24T12:57:31.907Z,17.41
2023-09-24T12:59:58.913Z,17.42
2023-09-24T13:02:26.486Z,17.45
2023-09-24T13:04:55.412Z,17.46
2023-09-24T13:07:22.012Z,17.47
2023-09-24T13:09:48.624Z,17.48
2023-09-24T13:12:16.488Z,17.50
2023-09-24T13:14:43.423Z,17.55
2023-09-24T13:17:10.594Z,17.58
2023-09-24T13:19:37.747Z,17.58
2023-09-24T13:22:04.320Z,17.61
2023-09-24T13:24:30.858Z,17.61
2023-09-24T13:26:57.404Z,17.60
2023-09-24T13:29:24.965Z,17.61
2023-09-24T13:31:53.166Z,17.66
2023-09-24T13:34:19.626Z,17.69
2023-09-24T13:36:46.206Z,17.74
2023-09-24T13:39:14.277Z,17.75
2023-09-24T13:41:40.880Z,17.76
2023-09-24T13:44:09.426Z,17.74
2023-09-24T13:46:36.145Z,17.76
2023-09-24T13:49:05.410Z,17.76
2023-09-24T13:51:36.549Z,17.77
2023-09-24T13:54:04.208Z,17.83
2023-09-24T13:56:30.937Z,17.84
2023-09-24T13:58:58.512Z,17.90
2023-09-24T14:01:25.460Z,17.91
2023-09-24T14:03:54.553Z,17.90
2023-09-24T14:06:21.748Z,17.94
2023-09-24T14:09:06.919Z,17.96
2023-09-24T14:11:52.003Z,18.05
2023-09-24T14:14:18.782Z,18.16
2023-09-24T14:16:48.754Z,18.25
2023-09-24T14:19:16.178Z,18.32
2023-09-24T14:21:42.983Z,18.36
2023-09-24T14:24:10.028Z,18.42
2023-09-24T14:26:36.628Z,18.46
2023-09-24T14:29:03.469Z,18.50
2023-09-24T14:31:30.193Z,18.50
2023-09-24T14:33:56.955Z,18.48
2023-09-24T14:36:23.871Z,18.49
2023-09-24T14:38:51.054Z,18.55
2023-09-24T14:41:19.091Z,18.60
2023-09-24T14:43:47.084Z,18.64
2023-09-24T14:46:13.930Z,18.64
2023-09-24T14:48:40.657Z,18.56
2023-09-24T14:56:50.265Z,18.39
2023-09-24T14:59:17.870Z,18.37
2023-09-24T15:01:53.568Z,18.34
2023-09-24T15:04:29.617Z,18.32
2023-09-24T15:07:01.276Z,18.30
2023-09-24T15:09:51.732Z,18.30
2023-09-24T15:12:33.338Z,18.29
2023-09-24T15:15:03.538Z,18.29
2023-09-24T15:17:30.234Z,18.28
2023-09-24T15:19:57.342Z,18.29
2023-09-24T15:22:27.969Z,18.29
2023-09-24T15:25:02.874Z,18.27
2023-09-24T15:31:21.548Z,18.27
2023-09-24T15:36:38.453Z,18.22
2023-09-24T15:39:05.256Z,18.22
2023-09-24T15:41:33.304Z,18.18
2023-09-24T15:44:31.864Z,18.15
2023-09-24T15:49:43.452Z,18.12
2023-09-24T15:52:10.182Z,18.08
2023-09-24T15:57:37.569Z,17.97
2023-09-24T16:00:10.636Z,17.90
2023-09-24T16:02:40.825Z,17.86
2023-09-24T16:05:10.209Z,17.82
2023-09-24T16:07:37.527Z,17.79
2023-09-24T16:10:05.396Z,17.74
2023-09-24T16:12:34.695Z,17.70
2023-09-24T16:15:01.771Z,17.66
2023-09-24T16:17:28.731Z,17.60
2023-09-24T16:19:55.342Z,17.55
2023-09-24T16:22:22.041Z,17.50
2023-09-24T16:24:51.952Z,17.45
2023-09-24T16:27:18.995Z,17.41
2023-09-24T16:29:45.715Z,17.34
2023-09-24T16:32:12.451Z,17.29
2023-09-24T16:34:40.249Z,17.25
2023-09-24T16:37:06.881Z,17.19
2023-09-24T16:39:34.423Z,17.15
2023-09-24T16:42:01.144Z,17.11
2023-09-24T16:44:29.723Z,17.07
2023-09-24T16:46:56.668Z,17.03
2023-09-24T16:49:23.367Z,16.98
2023-09-24T16:51:51.114Z,16.94
2023-09-24T16:54:23.300Z,16.89
2023-09-24T16:56:49.997Z,16.85
2023-09-24T16:59:17.670Z,16.82
2023-09-24T17:01:44.869Z,16.78
2023-09-24T17:04:12.066Z,16.75
2023-09-24T17:06:39.862Z,16.72
2023-09-24T17:09:06.539Z,16.68
2023-09-24T17:11:34.330Z,16.62
2023-09-24T17:14:00.962Z,16.56
2023-09-24T17:16:27.625Z,16.50
2023-09-24T17:18:54.349Z,16.47
2023-09-24T17:21:20.989Z,16.40
2023-09-24T17:23:47.998Z,16.36
2023-09-24T17:26:17.243Z,16.31
2023-09-24T17:28:44.279Z,16.25
2023-09-24T17:31:13.414Z,16.19
2023-09-24T17:33:40.995Z,16.14
2023-09-24T17:36:10.838Z,16.08
2023-09-24T17:38:38.247Z,15.99
2023-09-24T17:41:04.876Z,15.93
2023-09-24T17:43:31.628Z,15.88
2023-09-24T17:46:02.816Z,15.83
2023-09-24T17:48:29.611Z,15.78
2023-09-24T17:51:04.667Z,15.73
2023-09-24T17:53:31.308Z,15.67
2023-09-24T17:55:59.791Z,15.61
2023-09-24T17:58:27.245Z,15.56
2023-09-24T18:01:05.649Z,15.51
2023-09-24T18:03:34.055Z,15.46
2023-09-24T18:06:00.934Z,15.42
2023-09-24T18:08:29.295Z,15.38
2023-09-24T18:10:58.908Z,15.33
2023-09-24T18:13:26.092Z,15.27
2023-09-24T18:15:55.224Z,15.23
2023-09-24T18:18:25.015Z,15.20
2023-09-24T18:20:54.396Z,15.16
2023-09-24T18:23:21.205Z,15.11
2023-09-24T18:25:48.517Z,15.06
2023-09-24T18:28:15.920Z,15.02
2023-09-24T18:30:42.766Z,14.99
2023-09-24T18:33:10.244Z,14.94
2023-09-24T18:35:38.941Z,14.91
2023-09-24T18:38:07.423Z,14.88
2023-09-24T18:40:39.843Z,14.84
2023-09-24T18:43:07.008Z,14.78
2023-09-24T18:45:34.894Z,14.74
2023-09-24T18:48:01.755Z,14.71
2023-09-24T18:50:30.772Z,14.69
2023-09-24T18:52:57.458Z,14.64
2023-09-24T18:55:24.494Z,14.62
2023-09-24T18:57:51.153Z,14.59
2023-09-24T19:00:17.918Z,14.55
2023-09-24T19:02:45.085Z,14.54
2023-09-24T19:05:14.300Z,14.51
2023-09-24T19:07:40.873Z,14.49
2023-09-24T19:10:14.476Z,14.46
2023-09-24T19:12:44.480Z,14.44
2023-09-24T19:15:12.222Z,14.45
2023-09-24T19:17:39.981Z,14.41
2023-09-24T19:20:07.942Z,14.39
2023-09-24T19:22:35.403Z,14.38
2023-09-24T19:25:02.538Z,14.36
2023-09-24T19:27:29.290Z,14.33
2023-09-24T19:29:57.784Z,14.31
2023-09-24T19:32:27.013Z,14.26
2023-09-24T19:34:54.130Z,14.25
2023-09-24T19:37:20.898Z,14.24
2023-09-24T19:39:47.639Z,14.23
2023-09-24T19:42:14.350Z,14.20
2023-09-24T19:44:41.180Z,14.17
2023-09-24T19:47:08.105Z,14.13
2023-09-24T19:49:34.893Z,14.08
2023-09-24T19:52:01.595Z,14.04
2023-09-24T19:54:30.975Z,14.00
2023-09-24T19:56:59.663Z,14.00
2023-09-24T19:59:26.447Z,14.00
2023-09-24T20:01:53.335Z,13.99
2023-09-24T20:04:19.980Z,13.98
2023-09-24T20:06:47.606Z,13.97
2023-09-24T20:09:15.919Z,13.95
2023-09-24T20:11:44.788Z,13.94
2023-09-24T20:14:11.665Z,13.93
2023-09-24T20:16:39.329Z,13.92
2023-09-24T20:19:08.262Z,13.88
2023-09-24T20:21:35.573Z,13.87
2023-09-24T20:24:08.396Z,13.86
2023-09-24T20:26:39.965Z,13.84
2023-09-24T20:29:09.714Z,13.80
2023-09-24T20:31:37.488Z,13.78
2023-09-24T20:34:05.638Z,13.79
2023-09-24T20:36:33.723Z,13.77
2023-09-24T20:39:07.260Z,13.77
2023-09-24T20:41:36.522Z,13.73
2023-09-24T20:44:03.978Z,13.72
2023-09-24T20:46:38.023Z,13.70
2023-09-24T20:49:05.401Z,13.67
2023-09-24T20:51:32.407Z,13.64
2023-09-24T20:53:59.134Z,13.62
2023-09-24T20:56:25.979Z,13.60
2023-09-24T20:58:53.278Z,13.58
2023-09-24T21:01:20.006Z,13.57
2023-09-24T21:03:47.189Z,13.56
2023-09-24T21:06:14.549Z,13.55
2023-09-24T21:08:41.188Z,13.51
2023-09-24T21:11:07.779Z,13.48
2023-09-24T21:13:35.819Z,13.48
2023-09-24T21:16:03.131Z,13.47
2023-09-24T21:18:29.949Z,13.45
2023-09-24T21:20:56.537Z,13.44
2023-09-24T21:23:24.598Z,13.42
2023-09-24T21:25:51.157Z,13.39
2023-09-24T21:28:17.700Z,13.37
2023-09-24T21:30:44.375Z,13.36
2023-09-24T21:33:12.584Z,13.36
2023-09-24T21:35:39.218Z,13.35
2023-09-24T21:38:05.866Z,13.35
2023-09-24T21:40:32.395Z,13.32
2023-09-24T21:42:58.910Z,13.31
2023-09-24T21:45:25.611Z,13.28
2023-09-24T21:47:52.196Z,13.27
2023-09-24T21:50:18.776Z,13.27
2023-09-24T21:52:45.273Z,13.24
2023-09-24T21:55:11.949Z,13.19
2023-09-24T21:57:38.489Z,13.18
2023-09-24T22:00:14.022Z,13.16
2023-09-24T22:02:42.183Z,13.14
2023-09-24T22:05:09.157Z,13.12
2023-09-24T22:07:35.794Z,13.12
2023-09-24T22:10:02.798Z,13.11
2023-09-24T22:12:29.463Z,13.07
2023-09-24T22:14:56.231Z,13.03
2023-09-24T22:17:23.056Z,13.01
2023-09-24T22:19:49.542Z,13.01
2023-09-24T22:22:16.087Z,12.99
2023-09-24T22:24:43.777Z,12.99
2023-09-24T22:27:10.530Z,12.97
2023-09-24T22:29:37.118Z,12.96
2023-09-24T22:32:04.003Z,12.95
2023-09-24T22:34:30.638Z,12.95
2023-09-24T22:36:57.146Z,12.94
2023-09-24T22:39:23.713Z,12.92
2023-09-24T22:41:51.250Z,12.90
2023-09-24T22:44:17.871Z,12.92
2023-09-24T22:46:44.557Z,12.91
2023-09-24T22:49:11.105Z,12.89
2023-09-24T22:51:37.778Z,12.88
2023-09-24T22:54:04.452Z,12.90
2023-09-24T22:56:31.034Z,12.88
2023-09-24T22:58:58.744Z,12.89
2023-09-24T23:01:25.359Z,12.89
2023-09-24T23:03:52.369Z,12.89
2023-09-24T23:06:19.065Z,12.87
2023-09-24T23:08:45.622Z,12.88
2023-09-24T23:11:12.158Z,12.88
2023-09-24T23:13:38.747Z,12.88
2023-09-24T23:16:05.377Z,12.86
2023-09-24T23:18:32.251Z,12.86
2023-09-24T23:20:59.571Z,12.87
2023-09-24T23:23:26.253Z,12.86
2023-09-24T23:25:53.739Z,12.87
2023-09-24T23:28:20.388Z,12.86
2023-09-24T23:30:47.087Z,12.86
2023-09-24T23:33:14.270Z,12.86
2023-09-24T23:35:41.444Z,12.87
2023-09-24T23:38:08.703Z,12.85
2023-09-24T23:40:35.622Z,12.85
2023-09-24T23:43:02.946Z,12.85
2023-09-24T23:45:36.729Z,12.84
2023-09-24T23:48:08.102Z,12.83
2023-09-24T23:50:36.627Z,12.84
2023-09-24T23:53:04.404Z,12.83
2023-09-24T23:55:31.924Z,12.83
2023-09-24T23:58:06.665Z,12.82
